Main page
METAR-TAF:

METAR-TAF

Airports :

London Southend Airport

London-Southend, England

latitude: 51-34N, longitude: 000-42E, elevation: 15 m

Current weather observation

The report was made 32 minutes ago, at 20:50 UTC
Wind 6 kt from the South/Southwest
Temperature 9°C
Humidity 93%
Pressure 1025 hPa
Visibility 10 km or more
no clouds below 1500 m and no cumulonimbus

METAR: EGMC 132050Z 21006KT CAVOK 09/08 Q1025

Time: 21:22 (21:22 UTC)

Forecast

The report was made 1 hour and 25 minutes ago, at 19:57 UTC
Forecast valid from 13 at 21 UTC to 14 at 06 UTC
Wind 8 kt from the South/Southwest
Visibility 10 km or more
Few clouds at a height of 3000 ft

TAF: EGMC 131957Z 1321/1406 20008KT 9999 FEW030

Weather observations and forecasts of more than 4000 airports (METAR and TAF reports).

The available stations are represented by yellow and red dots on the map.

Hover mouse over dot to see the name of the station.

Then click to see weather observations and forecasts.

To change the map : click on the green buttons with a black cross to zoom in, on the green button with a dash to zoom out, or on the green arrows for adjacent maps.


METAR-TAF: